• Join FlightAware (Why Join?)
  • Login
  • US Flag 
08:23AM EDT


 

Airport Tracker/Info


-or-


 

Live Flight TrackerFlight Track Log ✈ AAY863 ✈ 02-Mar-2014 ✈ KCID - KPIE

Flight Track Log - Related Links

Times and Time Zones

All times are in EST time to prevent confusion due to time zone crossing. See the AAY863 flight status page for this flight to view local times or setup timezone preferences in your user account.

Time Position Orientation Groundspeed Altitude Reporting Facility
EST Latitude Longitude Course Direction KTS MPH feet Rate Location/Type
07:42PM 41.8642 -91.7986 143° Southeast 215 247 4,300  Level Chicago Center
07:43PM 41.7947 -91.8019 182° South 276 318 7,400 2,700 Climbing Chicago Center
07:44PM 41.7247 -91.7386 146° Southeast 306 352 10,000 2,220 Climbing Chicago Center
07:45PM 41.6175 -91.6706 155° Southeast 358 412 12,100 1,860 Climbing Chicago Center
07:46PM 41.5167 -91.6131 157° South 392 451 13,900 1,980 Climbing Chicago Center
07:47PM 41.1018 -91.1184 143° Southeast  Level FlightAware Approximate
07:47PM 41.4250 -91.5044 138° Southeast 438 504 16,200  Level Chicago Center
07:48PM 41.3247 -91.4108 145° Southeast 442 509 18,000 1,860 Climbing Chicago Center
07:49PM 41.2072 -91.3014 145° Southeast 458 527 20,100 1,740 Climbing Chicago Center
07:50PM 41.1064 -91.1978 142° Southeast 458 527 21,700 1,320 Climbing Chicago Center
07:52PM 41.0086 -91.0733 136° Southeast 484 557 22,900 1,380 Climbing Chicago Center
07:53PM 40.9078 -90.9500 137° Southeast 494 568 24,600 1,500 Climbing Chicago Center
07:54PM 40.8058 -90.8267 138° Southeast 497 572 26,000 1,140 Climbing Chicago Center
07:55PM 40.7036 -90.7028 137° Southeast 500 575 27,000 600 Climbing Chicago Center
07:56PM 40.5817 -90.5547 137° Southeast 500 575 27,300 540 Climbing Chicago Center
07:57PM 40.4806 -90.4344 138° Southeast 497 572 28,200 1,380 Climbing Chicago Center
07:58PM 40.3856 -90.3208 138° Southeast 473 544 30,200 1,320 Climbing Chicago Center
07:59PM 40.2914 -90.2094 138° Southeast 462 532 31,000 360 Climbing Chicago Center
08:00PM 40.1969 -90.0969 138° Southeast 462 532 31,000  Level Chicago Center
08:00PM 40.1394 -90.0292 138° Southeast 461 531 31,000  Level Kansas City Center
08:01PM 40.0447 -89.9181 138° Southeast 461 531 31,000  Level Kansas City Center
08:02PM 39.9506 -89.8067 138° Southeast 461 531 31,000  Level Kansas City Center
08:03PM 39.8553 -89.6975 139° Southeast 461 531 31,000  Level Kansas City Center
08:04PM 39.7389 -89.5717 140° Southeast 460 529 31,000  Level Kansas City Center
08:05PM 39.6406 -89.4717 142° Southeast 456 525 31,000  Level Kansas City Center
08:06PM 39.5339 -89.4017 153° Southeast 440 506 31,000  Level Kansas City Center
08:07PM 39.4267 -89.3358 155° Southeast 430 495 31,000  Level Kansas City Center
08:09PM 39.3194 -89.2683 154° Southeast 430 495 31,000  Level Kansas City Center
08:10PM 39.2136 -89.2011 154° Southeast 429 494 31,000  Level Kansas City Center
08:11PM 39.1069 -89.1347 154° Southeast 429 494 31,000  Level Kansas City Center
08:12PM 39.0006 -89.0689 154° Southeast 427 491 31,000  Level Kansas City Center
08:13PM 38.8689 -88.9867 154° Southeast 426 490 31,000  Level Kansas City Center
08:14PM 38.7669 -88.9214 153° Southeast 426 490 31,000  Level Kansas City Center
08:15PM 38.6581 -88.8539 154° Southeast 428 493 31,000  Level Kansas City Center
08:16PM 38.5356 -88.7806 155° Southeast 435 501 31,000  Level Kansas City Center
08:17PM 38.4278 -88.7142 154° Southeast 434 499 31,000  Level Kansas City Center
08:18PM 38.3236 -88.6508 154° Southeast 434 499 31,000  Level Kansas City Center
08:20PM 38.1269 -88.5303 154° Southeast 433 498 31,000  Level Memphis Center
08:21PM 38.0181 -88.4628 154° Southeast 435 501 31,000  Level Kansas City Center
08:22PM 37.9067 -88.3975 155° Southeast 435 501 31,000  Level Kansas City Center
08:23PM 37.7722 -88.3142 154° Southeast 442 509 31,000  Level Kansas City Center
08:24PM 37.6583 -88.2472 155° Southeast 444 511 31,000  Level Indianapolis Center
08:25PM 37.5464 -88.1786 154° Southeast 445 512 31,000  Level Indianapolis Center
08:26PM 37.4300 -88.1094 155° Southeast 452 520 31,000  Level Indianapolis Center
08:27PM 37.3139 -88.0408 155° Southeast 454 522 31,000  Level Indianapolis Center
08:28PM 37.1975 -87.9725 155° Southeast 456 525 31,000  Level Memphis Center
08:29PM 37.0806 -87.9019 154° Southeast 457 526 31,000  Level Memphis Center
08:30PM 36.9636 -87.8333 155° Southeast 460 529 31,000  Level Memphis Center
08:31PM 36.8469 -87.7653 155° Southeast 460 529 31,000  Level Memphis Center
08:32PM 36.7300 -87.6967 155° Southeast 460 529 31,000  Level Memphis Center
08:33PM 36.6125 -87.6283 155° Southeast 460 529 31,000  Level Memphis Center
08:34PM 36.4972 -87.5608 155° Southeast 460 529 31,000  Level Memphis Center
08:35PM 36.3836 -87.4964 155° Southeast 454 522 31,000  Level Memphis Center
08:36PM 36.2692 -87.4300 155° Southeast 453 521 31,000  Level Memphis Center
08:37PM 36.1328 -87.3522 155° Southeast 457 526 31,000  Level Memphis Center
08:38PM 36.0133 -87.2831 155° Southeast 467 537 31,000  Level Memphis Center
08:39PM 35.8928 -87.2153 156° South 470 541 31,000  Level Memphis Center
08:40PM 35.7725 -87.1464 155° Southeast 470 541 31,000  Level Memphis Center
08:41PM 35.6503 -87.0778 155° Southeast 475 547 31,000  Level Memphis Center
08:42PM 35.5278 -87.0086 155° Southeast 475 547 31,000  Level Memphis Center
08:43PM 35.4047 -86.9389 155° Southeast 481 554 31,000  Level Memphis Center
08:44PM 35.2803 -86.8672 155° Southeast 487 560 31,000  Level Memphis Center
08:45PM 35.1542 -86.7967 155° Southeast 490 564 31,000  Level Memphis Center
08:46PM 35.0317 -86.7289 156° South 490 564 31,000  Level Memphis Center
08:47PM 34.9086 -86.6594 155° Southeast 489 563 31,000  Level Memphis Center
08:48PM 34.7844 -86.5922 156° South 488 562 31,000  Level Memphis Center
08:49PM 34.6608 -86.5225 155° Southeast 488 562 31,000  Level Memphis Center
08:50PM 34.5119 -86.4419 156° South 488 562 31,000  Level Memphis Center
08:51PM 34.3878 -86.3739 156° South 488 562 31,000  Level Memphis Center
08:52PM 34.2644 -86.3069 156° South 487 560 31,000  Level Memphis Center
08:53PM 34.1108 -86.2217 155° Southeast 495 570 31,000  Level Atlanta Center
08:54PM 33.9889 -86.1558 156° South 495 570 31,000  Level Atlanta Center
08:55PM 33.8669 -86.0903 156° South 488 562 31,000  Level Atlanta Center
08:56PM 33.7492 -86.0250 155° Southeast 483 556 31,000  Level Atlanta Center
08:57PM 33.6247 -85.9597 156° South 478 550 31,000  Level Atlanta Center
08:58PM 33.5150 -85.9025 156° South 478 550 31,000  Level Atlanta Center
08:59PM 33.3928 -85.8378 156° South 478 550 31,000  Level Atlanta Center
09:00PM 33.2728 -85.7731 156° South 478 550 31,000  Level Atlanta Center
09:01PM 33.1483 -85.7061 156° South 478 550 31,000  Level Atlanta Center
09:02PM 33.0261 -85.6419 156° South 478 550 31,000  Level Atlanta Center
09:03PM 32.9017 -85.5753 156° South 478 550 31,000  Level Atlanta Center
09:04PM 32.7772 -85.5089 156° South 478 550 31,000  Level Atlanta Center
09:05PM 32.6425 -85.4375 156° South 478 550 31,000  Level Atlanta Center
09:06PM 32.5181 -85.3714 156° South 484 557 31,000  Level Atlanta Center
09:07PM 32.3933 -85.3081 157° South 484 557 31,000  Level Atlanta Center
09:10PM 32.1500 -85.1819 156° South 506 582 31,000  Level Jacksonville Center
09:11PM 32.0300 -85.1200 156° South 496 571 31,000  Level Jacksonville Center
09:12PM 31.9039 -85.0558 157° South 491 565 31,000  Level Jacksonville Center
09:13PM 31.7817 -84.9944 157° South 486 559 31,000  Level Jacksonville Center
09:14PM 31.6575 -84.9306 156° South 486 559 31,000  Level Jacksonville Center
09:15PM 31.5333 -84.8644 156° South 486 559 31,000  Level Jacksonville Center
09:16PM 31.4153 -84.7939 153° Southeast 486 559 31,000  Level Jacksonville Center
09:17PM 31.2972 -84.7233 153° Southeast 481 554 31,000  Level Jacksonville Center
09:18PM 31.1772 -84.6506 153° Southeast 481 554 31,000 -300 Level Jacksonville Center
09:19PM 31.0592 -84.5806 153° Southeast 481 554 30,400 -900 Descending Jacksonville Center
09:20PM 30.9389 -84.5106 153° Southeast 481 554 29,300 -720 Descending Jacksonville Center
09:21PM 30.8189 -84.4383 153° Southeast 481 554 29,000 -180 Descending Jacksonville Center
09:22PM 30.6986 -84.3664 153° Southeast 481 554 29,000  Level Jacksonville Center
09:23PM 30.5761 -84.2944 153° Southeast 486 559 29,000  Level Jacksonville Center
09:24PM 30.4558 -84.2253 154° Southeast 492 566 29,000  Level Jacksonville Center
09:25PM 30.3356 -84.1536 153° Southeast 485 558 29,000  Level Jacksonville Center
09:26PM 30.2150 -84.0847 154° Southeast 485 558 29,000  Level Jacksonville Center
09:27PM 30.0903 -84.0136 154° Southeast 485 558 29,000  Level Jacksonville Center
09:28PM 29.9700 -83.9428 153° Southeast 485 558 29,000  Level Jacksonville Center
09:29PM 29.8472 -83.8719 153° Southeast 485 558 29,000 -300 Level Jacksonville Center
09:30PM 29.7267 -83.8014 153° Southeast 485 558 28,400 -900 Descending Jacksonville Center
09:31PM 29.6039 -83.7333 154° Southeast 485 558 27,300 -1,020 Descending Jacksonville Center
09:32PM 29.4833 -83.6631 153° Southeast 485 558 26,400 -960 Descending Jacksonville Center
09:33PM 29.3628 -83.5931 153° Southeast 485 558 25,400 -720 Descending Jacksonville Center
09:34PM 29.2419 -83.5233 153° Southeast 485 558 25,000 -240 Descending Jacksonville Center
09:35PM 29.1233 -83.4511 152° Southeast 485 558 25,000 -60 Level Jacksonville Center
09:36PM 28.9983 -83.3697 150° Southeast 496 571 24,900 -600 Descending Jacksonville Center
09:37PM 28.8819 -83.2956 151° Southeast 496 571 23,800 -1,800 Descending Jacksonville Center
09:38PM 28.7692 -83.2264 152° Southeast 483 556 21,300 -2,760 Descending Jacksonville Center
09:39PM 28.6608 -83.1575 151° Southeast 462 532 18,300 -3,120 Descending Jacksonville Center
09:39PM 28.5667 -83.1000 152° Southeast 434 499 16,100 -2,880 Descending Tampa TRACON
09:40PM 28.4833 -83.0500 152° Southeast 417 480 13,800 -1,740 Descending Tampa TRACON
09:41PM 28.4000 -82.9833 145° Southeast 370 426 12,800 -1,440 Descending Tampa TRACON
09:42PM 28.3167 -82.8833 133° Southeast 304 350 10,500 -1,800 Descending Tampa TRACON
09:43PM 28.2667 -82.8500 150° Southeast 299 344 9,200 -1,860 Descending Tampa TRACON
09:44PM 28.2000 -82.7667 132° Southeast 282 325 6,800 -1,860 Descending Tampa TRACON
09:45PM 28.1667 -82.7333 139° Southeast 263 303 5,500 -1,980 Descending Tampa TRACON
09:46PM 28.1000 -82.7000 156° South 225 259 3,600 -1,620 Descending Tampa TRACON
09:47PM 28.0333 -82.7167 192° South 200 230 2,000 -1,080 Descending Tampa TRACON
09:48PM 27.9833 -82.7000 164° South 142 163 1,300 -780 Descending Tampa TRACON
09:49PM 27.9500 -82.7000 180° South 128 147 700 -780 Descending Tampa TRACON